Time;durP1;ratioP1;P1;durP2;ratioP2;P2;SDS_P1;SDS_P2;PMS_P1;PMS_P2;Temp;Humidity;BMP_temperature;BMP_pressure;BME280_temperature;BME280_humidity;BME280_pressure;Samples;Min_cycle;Max_cycle;Signal;HPM_P1;HPM_P2
2023/11/02 00:01:39;;;;;;;0.50;0.10;;;9.70;99.90;;;;;;5023380;28;20029;-84
2023/11/02 00:04:04;;;;;;;0.28;0.10;;;9.70;99.90;;;;;;5006993;28;20029;-85
2023/11/02 00:06:35;;;;;;;0.32;0.00;;;9.70;99.90;;;;;;5007607;28;20033;-84
2023/11/02 00:09:01;;;;;;;0.38;0.00;;;9.70;99.90;;;;;;5005506;28;20040;-86
2023/11/02 00:11:53;;;;;;;1.42;0.10;;;9.60;99.90;;;;;;5025086;28;20029;-87
2023/11/02 00:14:20;;;;;;;0.88;0.10;;;9.60;99.90;;;;;;5020828;28;20038;-85
2023/11/02 00:16:47;;;;;;;1.83;0.38;;;9.70;99.90;;;;;;5008129;28;20065;-84
2023/11/02 00:19:37;;;;;;;0.50;0.10;;;9.70;99.90;;;;;;5007045;28;20080;-85
2023/11/02 00:22:07;;;;;;;;;;;9.60;99.90;;;;;;5007310;28;20454;-85
2023/11/02 00:24:40;;;;;;;1.55;0.10;;;9.60;99.90;;;;;;5021774;28;20289;-87
2023/11/02 00:27:07;;;;;;;0.45;0.00;;;9.60;99.90;;;;;;5010438;28;20025;-86
2023/11/02 00:29:33;;;;;;;0.40;0.10;;;9.60;99.90;;;;;;4996282;28;20432;-83
2023/11/02 00:31:59;;;;;;;1.48;0.10;;;9.60;99.90;;;;;;5027817;28;20025;-86
2023/11/02 00:34:28;;;;;;;2.17;0.55;;;9.70;99.90;;;;;;5024651;28;20049;-85
2023/11/02 00:36:55;;;;;;;0.50;0.00;;;9.70;99.90;;;;;;5011424;28;20060;-86
2023/11/02 00:39:20;;;;;;;0.82;0.10;;;9.70;99.90;;;;;;5013516;28;20417;-85
2023/11/02 00:41:47;;;;;;;0.63;0.10;;;9.70;99.90;;;;;;5025457;28;20032;-85
2023/11/02 00:44:14;;;;;;;0.65;0.10;;;9.70;99.90;;;;;;5010981;28;20501;-85
2023/11/02 00:46:39;;;;;;;1.88;0.10;;;9.70;99.90;;;;;;4997198;28;20067;-84
2023/11/02 00:49:17;;;;;;;0.80;0.10;;;9.70;99.90;;;;;;5030255;28;20025;-87
2023/11/02 00:51:43;;;;;;;0.50;0.10;;;9.70;99.90;;;;;;4993208;28;20021;-85
2023/11/02 00:54:43;;;;;;;1.27;0.10;;;9.70;99.90;;;;;;5027898;28;20501;-85
2023/11/02 00:57:18;;;;;;;1.05;0.10;;;9.70;99.90;;;;;;5024607;28;20075;-85
2023/11/02 00:59:44;;;;;;;2.15;0.20;;;9.70;99.90;;;;;;5009819;28;20034;-84
2023/11/02 01:02:10;;;;;;;2.20;0.10;;;9.70;99.90;;;;;;5024161;28;20037;-85
2023/11/02 01:04:42;;;;;;;1.83;0.10;;;9.70;99.90;;;;;;4994538;28;20062;-87
2023/11/02 01:07:09;;;;;;;1.75;0.10;;;9.70;99.90;;;;;;5026481;28;20494;-86
2023/11/02 01:09:46;;;;;;;0.57;0.10;;;9.70;99.90;;;;;;4996413;28;20481;-88
2023/11/02 01:12:32;;;;;;;0.70;0.10;;;9.70;99.90;;;;;;5029188;28;20030;-85
2023/11/02 01:15:00;;;;;;;0.80;0.10;;;9.70;99.90;;;;;;5027601;28;20612;-86
2023/11/02 01:17:36;;;;;;;1.17;0.10;;;9.70;99.90;;;;;;4992715;28;20022;-87
2023/11/02 01:20:14;;;;;;;0.75;0.10;;;9.60;99.90;;;;;;5008949;28;20025;-87
2023/11/02 01:22:55;;;;;;;0.93;0.10;;;9.70;99.90;;;;;;5008080;28;20108;-87
2023/11/02 01:25:26;;;;;;;0.82;0.10;;;9.70;99.90;;;;;;5022000;28;20018;-86
2023/11/02 01:28:00;;;;;;;0.68;0.20;;;9.60;99.90;;;;;;5022909;28;20034;-85
2023/11/02 01:30:27;;;;;;;1.25;0.10;;;9.60;99.90;;;;;;5003372;28;20037;-89
2023/11/02 01:32:54;;;;;;;0.88;0.10;;;9.60;99.90;;;;;;5024860;28;20041;-86
2023/11/02 01:35:43;;;;;;;1.35;0.10;;;9.70;99.90;;;;;;5010309;28;20469;-86
2023/11/02 01:38:13;;;;;;;1.43;0.40;;;9.70;99.90;;;;;;5008814;28;21129;-86
2023/11/02 01:41:11;;;;;;;2.08;0.10;;;9.70;99.90;;;;;;5024293;28;20342;-84
2023/11/02 01:44:11;;;;;;;0.40;0.03;;;9.80;99.90;;;;;;5024363;28;20133;-85
2023/11/02 01:47:20;;;;;;;0.82;0.10;;;9.70;99.90;;;;;;5023706;28;20041;-85
2023/11/02 01:49:48;;;;;;;0.57;0.10;;;9.70;99.90;;;;;;5025967;28;20056;-85
2023/11/02 01:52:29;;;;;;;1.08;0.10;;;9.80;99.90;;;;;;5020685;28;20029;-84
2023/11/02 01:55:09;;;;;;;1.13;0.10;;;9.80;99.90;;;;;;5006232;28;20037;-84
2023/11/02 01:57:38;;;;;;;1.70;0.10;;;9.80;99.90;;;;;;5003551;28;20041;-83
2023/11/02 02:00:05;;;;;;;0.65;0.10;;;9.90;99.90;;;;;;5021731;28;20029;-84
2023/11/02 02:02:52;;;;;;;1.23;0.10;;;9.90;99.90;;;;;;4989167;28;20022;-82
2023/11/02 02:05:44;;;;;;;0.75;0.10;;;9.90;99.90;;;;;;5006218;28;20180;-84
2023/11/02 02:08:33;;;;;;;0.40;0.05;;;9.90;99.90;;;;;;5005070;28;20026;-84
2023/11/02 02:11:26;;;;;;;2.22;0.10;;;9.90;99.90;;;;;;5005730;28;20022;-84
2023/11/02 02:14:06;;;;;;;0.93;0.10;;;10.00;99.90;;;;;;5023593;28;20520;-83
2023/11/02 02:16:48;;;;;;;0.52;0.20;;;10.00;99.90;;;;;;5023613;28;20079;-83
2023/11/02 02:19:20;;;;;;;2.00;0.10;;;10.00;99.90;;;;;;5003953;28;20488;-85
2023/11/02 02:22:02;;;;;;;1.70;0.10;;;10.00;99.90;;;;;;5024928;28;20018;-85
2023/11/02 02:24:41;;;;;;;1.27;0.22;;;10.10;99.90;;;;;;4991954;28;20120;-85
2023/11/02 02:27:37;;;;;;;1.73;0.32;;;10.10;99.90;;;;;;5023281;28;20032;-84
2023/11/02 02:30:31;;;;;;;0.80;0.08;;;10.10;99.90;;;;;;5024868;28;20474;-85
2023/11/02 02:33:55;;;;;;;2.55;0.10;;;10.10;99.90;;;;;;5009026;28;20154;-86
2023/11/02 02:36:42;;;;;;;0.90;0.10;;;10.10;99.90;;;;;;4948030;28;20077;-85
2023/11/02 02:39:10;;;;;;;1.65;0.10;;;10.10;99.90;;;;;;4968019;28;20069;-84
2023/11/02 02:41:40;;;;;;;0.80;0.10;;;10.10;99.90;;;;;;4948390;28;20042;-85
2023/11/02 02:44:10;;;;;;;0.47;0.10;;;10.10;99.90;;;;;;4936026;28;20147;-85
2023/11/02 02:46:37;;;;;;;1.25;0.10;;;10.10;99.90;;;;;;4935184;28;20038;-84
2023/11/02 02:49:04;;;;;;;0.88;0.10;;;10.20;99.90;;;;;;4948627;28;20031;-84
2023/11/02 02:51:33;;;;;;;2.42;0.20;;;10.20;99.90;;;;;;4933355;28;20062;-86
2023/11/02 02:54:02;;;;;;;;;;;10.30;99.90;;;;;;4948894;28;20058;-87
2023/11/02 02:56:30;;;;;;;1.45;0.10;;;10.30;99.90;;;;;;4962072;28;19910;-87
2023/11/02 02:59:01;;;;;;;1.52;0.10;;;10.40;99.90;;;;;;4968357;28;20566;-87
2023/11/02 03:01:36;;;;;;;4.57;0.20;;;10.40;99.90;;;;;;4948318;28;20454;-85
2023/11/02 03:04:03;;;;;;;1.05;0.10;;;10.50;99.90;;;;;;4952068;28;20081;-85
2023/11/02 03:06:31;;;;;;;0.70;0.10;;;10.40;99.90;;;;;;4989599;28;20048;-86
2023/11/02 03:08:59;;;;;;;1.83;0.20;;;10.40;99.90;;;;;;4992392;28;20488;-88
2023/11/02 03:11:27;;;;;;;5.50;0.20;;;10.40;99.90;;;;;;5006445;28;20026;-87
2023/11/02 03:13:55;;;;;;;3.65;0.17;;;10.50;99.90;;;;;;5025640;28;20049;-87
2023/11/02 03:16:23;;;;;;;1.13;0.10;;;10.50;99.90;;;;;;5008721;28;20116;-87
2023/11/02 03:18:49;;;;;;;2.72;0.10;;;10.50;99.90;;;;;;4991143;28;20033;-88
2023/11/02 03:21:15;;;;;;;1.73;0.10;;;10.50;99.90;;;;;;5007053;28;20049;-88
2023/11/02 03:23:50;;;;;;;1.02;0.10;;;10.50;99.90;;;;;;5006401;28;20113;-85
2023/11/02 03:26:44;;;;;;;0.55;0.10;;;10.50;99.90;;;;;;5024554;28;20025;-86
2023/11/02 03:29:17;;;;;;;0.77;0.10;;;10.60;99.90;;;;;;5006554;28;20029;-85
2023/11/02 03:31:58;;;;;;;1.88;0.10;;;10.50;99.90;;;;;;5025284;28;20028;-87
2023/11/02 03:34:48;;;;;;;0.88;0.10;;;10.50;99.90;;;;;;5025235;28;20502;-85
2023/11/02 03:37:32;;;;;;;0.65;0.10;;;10.60;99.90;;;;;;4985733;28;20040;-87
2023/11/02 03:40:22;;;;;;;2.03;0.10;;;10.50;99.90;;;;;;5005348;28;20111;-85
2023/11/02 03:43:04;;;;;;;2.92;0.20;;;10.50;99.90;;;;;;5023072;28;20030;-85
2023/11/02 03:46:03;;;;;;;1.10;0.10;;;10.60;99.90;;;;;;5025006;28;20604;-86
2023/11/02 03:48:45;;;;;;;1.58;0.10;;;10.70;99.90;;;;;;5022194;28;20091;-85
2023/11/02 03:51:19;;;;;;;2.15;0.10;;;10.70;99.90;;;;;;5022201;28;20429;-86
2023/11/02 03:54:01;;;;;;;1.00;0.20;;;10.70;99.90;;;;;;5010713;28;20038;-86
2023/11/02 03:56:49;;;;;;;4.07;0.20;;;10.80;99.90;;;;;;5006783;28;20096;-84
2023/11/02 03:59:31;;;;;;;1.98;0.10;;;10.80;99.90;;;;;;5023742;28;20108;-85
2023/11/02 04:02:05;;;;;;;1.10;0.10;;;10.80;99.90;;;;;;4994229;28;20187;-85
2023/11/02 04:04:37;;;;;;;1.05;0.10;;;10.80;99.90;;;;;;4992760;28;20030;-83
2023/11/02 04:07:15;;;;;;;3.03;0.20;;;10.80;99.90;;;;;;5027227;28;20486;-83
2023/11/02 04:09:54;;;;;;;1.67;0.40;;;10.80;99.90;;;;;;5025491;28;20033;-84
2023/11/02 04:12:29;;;;;;;2.75;0.10;;;10.80;99.90;;;;;;5026095;28;20481;-83
2023/11/02 04:14:58;;;;;;;1.63;0.15;;;10.90;99.90;;;;;;5028262;28;20560;-83
2023/11/02 04:17:26;;;;;;;2.42;0.20;;;10.90;99.90;;;;;;5025993;28;20557;-85
2023/11/02 04:19:51;;;;;;;1.80;0.28;;;10.90;99.90;;;;;;5024364;28;20033;-84
2023/11/02 04:22:17;;;;;;;2.33;0.20;;;10.90;99.90;;;;;;5010015;28;20119;-85
2023/11/02 04:24:43;;;;;;;0.88;0.20;;;10.90;99.90;;;;;;5027877;28;20035;-84
2023/11/02 04:27:09;;;;;;;1.95;0.10;;;10.90;99.90;;;;;;5010182;28;20064;-85
2023/11/02 04:29:35;;;;;;;1.95;0.10;;;10.80;99.90;;;;;;4993863;28;20056;-87
2023/11/02 04:32:00;;;;;;;1.77;0.10;;;10.80;99.90;;;;;;5011352;28;20033;-86
2023/11/02 04:34:26;;;;;;;3.13;0.20;;;10.90;99.90;;;;;;5021212;28;20234;-85
2023/11/02 04:36:53;;;;;;;1.10;0.03;;;10.80;99.90;;;;;;4996289;28;20079;-85
2023/11/02 04:39:19;;;;;;;2.88;0.20;;;10.90;99.90;;;;;;5012884;28;20031;-85
2023/11/02 04:41:45;;;;;;;3.65;0.35;;;10.90;99.90;;;;;;5029664;28;20028;-84
2023/11/02 04:44:11;;;;;;;1.40;0.20;;;11.00;99.90;;;;;;4985591;28;20057;-85
2023/11/02 04:46:36;;;;;;;3.63;0.28;;;10.90;99.90;;;;;;5021888;28;20054;-86
2023/11/02 04:49:03;;;;;;;1.08;0.20;;;11.00;99.90;;;;;;5021216;28;20485;-84
2023/11/02 04:51:29;;;;;;;1.85;0.20;;;11.00;99.90;;;;;;5006826;28;20037;-86
2023/11/02 04:53:56;;;;;;;2.15;0.20;;;10.90;99.90;;;;;;4989863;28;20034;-85
2023/11/02 04:56:22;;;;;;;2.08;0.30;;;11.00;99.90;;;;;;4992759;28;20041;-86
2023/11/02 04:58:48;;;;;;;2.20;0.20;;;11.00;99.90;;;;;;5009292;28;20038;-87
2023/11/02 05:01:14;;;;;;;1.85;0.20;;;11.00;99.90;;;;;;4990448;28;20084;-86
2023/11/02 05:03:40;;;;;;;3.28;0.20;;;11.00;99.90;;;;;;5007297;28;20072;-85
2023/11/02 05:06:06;;;;;;;2.70;0.40;;;11.00;99.90;;;;;;4999752;28;20463;-84
2023/11/02 05:08:31;;;;;;;1.73;0.20;;;11.00;99.90;;;;;;5023152;28;20072;-85
2023/11/02 05:10:57;;;;;;;2.05;0.20;;;11.00;99.90;;;;;;5005164;28;20101;-85
2023/11/02 05:13:23;;;;;;;1.42;0.30;;;11.00;99.90;;;;;;4986590;28;20133;-86
2023/11/02 05:15:48;;;;;;;1.30;0.20;;;11.00;99.90;;;;;;5009034;28;20017;-87
2023/11/02 05:18:14;;;;;;;1.45;0.20;;;11.10;99.90;;;;;;5004416;28;20121;-86
2023/11/02 05:20:40;;;;;;;1.27;0.10;;;11.10;99.90;;;;;;5022212;28;20037;-88
2023/11/02 05:23:09;;;;;;;1.58;0.20;;;11.00;99.90;;;;;;5009500;28;20022;-84
2023/11/02 05:25:34;;;;;;;1.38;0.20;;;11.00;99.90;;;;;;5005615;28;20038;-85
2023/11/02 05:28:00;;;;;;;0.90;0.25;;;11.10;99.90;;;;;;4990914;28;20027;-85
2023/11/02 05:30:26;;;;;;;0.88;0.20;;;11.10;99.90;;;;;;5022052;28;20471;-85
2023/11/02 05:32:51;;;;;;;1.10;0.10;;;11.00;99.90;;;;;;5008080;28;20030;-86
2023/11/02 05:35:17;;;;;;;1.90;0.10;;;11.00;99.90;;;;;;5009408;28;20053;-86
2023/11/02 05:37:42;;;;;;;1.85;0.20;;;11.00;99.90;;;;;;5006882;28;20014;-85
2023/11/02 05:40:08;;;;;;;1.35;0.20;;;11.10;99.90;;;;;;4991811;28;20034;-84
2023/11/02 05:42:34;;;;;;;0.75;0.10;;;11.10;99.90;;;;;;4991684;28;20049;-86
2023/11/02 05:45:02;;;;;;;1.15;0.20;;;11.10;99.90;;;;;;5008653;28;20192;-86
2023/11/02 05:47:27;;;;;;;3.63;0.20;;;11.00;99.90;;;;;;5008451;28;20639;-86
2023/11/02 05:49:53;;;;;;;3.38;0.20;;;11.00;99.90;;;;;;4989406;28;20034;-86
2023/11/02 05:52:19;;;;;;;1.02;0.20;;;11.00;99.90;;;;;;5001849;28;20338;-86
2023/11/02 05:54:45;;;;;;;1.38;0.20;;;11.10;99.90;;;;;;5024508;28;20041;-86
2023/11/02 05:57:11;;;;;;;2.05;0.17;;;11.10;99.90;;;;;;5008388;28;20092;-85
2023/11/02 05:59:38;;;;;;;0.82;0.10;;;11.10;99.90;;;;;;5004421;28;20029;-83
2023/11/02 06:02:03;;;;;;;0.60;0.10;;;11.20;99.90;;;;;;5024610;28;20057;-87
2023/11/02 06:04:29;;;;;;;1.88;0.20;;;11.10;99.90;;;;;;5007023;28;20034;-86
2023/11/02 06:06:55;;;;;;;1.67;0.10;;;11.10;99.90;;;;;;5020506;28;20272;-85
2023/11/02 06:09:20;;;;;;;1.20;0.20;;;11.20;99.90;;;;;;5002892;28;20026;-86
2023/11/02 06:11:46;;;;;;;1.40;0.20;;;11.20;99.90;;;;;;5022876;28;20433;-83
2023/11/02 06:14:12;;;;;;;1.17;0.10;;;11.20;99.90;;;;;;5006258;28;20072;-86
2023/11/02 06:16:37;;;;;;;0.85;0.10;;;11.20;99.90;;;;;;5000682;28;20027;-85
2023/11/02 06:19:03;;;;;;;1.17;0.10;;;11.10;99.90;;;;;;4987486;28;20498;-85
2023/11/02 06:21:29;;;;;;;0.95;0.10;;;11.20;99.90;;;;;;4988148;28;20614;-84
2023/11/02 06:23:55;;;;;;;1.30;0.10;;;11.20;99.90;;;;;;5003356;28;20025;-84
2023/11/02 06:26:20;;;;;;;0.63;0.10;;;11.20;99.90;;;;;;5008210;28;20026;-85
2023/11/02 06:28:46;;;;;;;1.13;0.03;;;11.10;99.90;;;;;;5003901;28;20030;-85
2023/11/02 06:31:12;;;;;;;0.88;0.10;;;11.10;99.90;;;;;;5002943;28;20061;-83
2023/11/02 06:33:38;;;;;;;1.85;0.20;;;11.10;99.90;;;;;;5005531;28;20402;-84
2023/11/02 06:36:04;;;;;;;1.92;0.10;;;11.10;99.90;;;;;;5005284;28;20057;-85
2023/11/02 06:38:30;;;;;;;1.17;0.10;;;11.00;99.90;;;;;;5000792;28;20060;-84
2023/11/02 06:40:56;;;;;;;1.65;0.10;;;11.00;99.90;;;;;;5004193;28;20462;-83
2023/11/02 06:43:22;;;;;;;0.68;0.10;;;11.00;99.90;;;;;;5004100;28;20334;-83
2023/11/02 06:45:47;;;;;;;0.55;0.05;;;11.00;99.90;;;;;;5019173;28;20026;-83
2023/11/02 06:48:13;;;;;;;0.85;0.10;;;11.00;99.90;;;;;;4984825;28;20526;-83
2023/11/02 06:50:38;;;;;;;1.45;0.10;;;10.90;99.90;;;;;;4991289;28;20026;-84
2023/11/02 06:53:04;;;;;;;1.42;0.10;;;10.90;99.90;;;;;;5019352;28;20493;-84
2023/11/02 06:55:30;;;;;;;1.60;0.10;;;10.80;99.90;;;;;;5022217;28;20124;-86
2023/11/02 06:57:56;;;;;;;0.75;0.13;;;10.70;99.90;;;;;;5006886;28;20034;-84
2023/11/02 07:00:22;;;;;;;1.27;0.10;;;10.60;99.90;;;;;;5018997;28;20030;-87
2023/11/02 07:02:49;;;;;;;0.73;0.10;;;10.60;99.90;;;;;;4984976;28;20490;-84
2023/11/02 07:05:15;;;;;;;0.70;0.10;;;10.50;99.90;;;;;;5003539;28;20340;-86
2023/11/02 07:07:43;;;;;;;0.68;0.10;;;10.60;99.90;;;;;;5003596;28;20103;-84
2023/11/02 07:10:09;;;;;;;0.40;0.10;;;10.60;99.90;;;;;;5004230;28;20029;-84
2023/11/02 07:12:36;;;;;;;1.17;0.10;;;10.60;99.90;;;;;;5006206;28;20029;-85
2023/11/02 07:15:01;;;;;;;1.55;0.10;;;10.50;99.90;;;;;;4987296;28;20500;-85
2023/11/02 07:17:27;;;;;;;1.90;0.10;;;10.50;99.90;;;;;;5006524;28;20188;-86
2023/11/02 07:19:53;;;;;;;1.65;0.10;;;10.50;99.90;;;;;;4990077;28;20030;-83
2023/11/02 07:22:19;;;;;;;1.42;0.10;;;10.50;99.90;;;;;;5007863;28;20162;-85
2023/11/02 07:24:45;;;;;;;0.90;0.10;;;10.40;99.90;;;;;;5016908;28;20103;-84
2023/11/02 07:27:11;;;;;;;0.80;0.10;;;10.40;99.90;;;;;;5006247;28;20536;-85
2023/11/02 07:29:37;;;;;;;0.38;0.05;;;10.40;99.90;;;;;;5006391;28;20026;-85
2023/11/02 07:32:04;;;;;;;0.70;0.10;;;10.40;99.90;;;;;;5018104;28;20061;-84
2023/11/02 07:34:30;;;;;;;1.27;0.10;;;10.40;99.90;;;;;;5006231;28;20045;-84
2023/11/02 07:36:57;;;;;;;0.65;0.10;;;10.50;99.90;;;;;;4993203;28;20034;-84
2023/11/02 07:39:22;;;;;;;0.63;0.10;;;10.50;99.90;;;;;;5010187;28;20109;-84
2023/11/02 07:41:48;;;;;;;0.40;0.03;;;10.60;99.90;;;;;;5024494;28;20149;-84
2023/11/02 07:44:17;;;;;;;1.02;0.10;;;10.60;99.90;;;;;;5010846;28;20191;-87
2023/11/02 07:46:43;;;;;;;0.45;0.10;;;10.70;99.90;;;;;;5009796;28;20030;-84
2023/11/02 07:49:08;;;;;;;1.38;0.10;;;10.80;99.90;;;;;;5006512;28;20025;-87
2023/11/02 07:51:34;;;;;;;1.02;0.10;;;10.90;99.90;;;;;;4993949;28;20036;-84
2023/11/02 07:54:01;;;;;;;1.23;0.10;;;10.90;99.90;;;;;;5010176;28;20049;-86
2023/11/02 07:56:27;;;;;;;1.05;0.30;;;10.90;99.90;;;;;;5000682;28;20025;-86
2023/11/02 07:58:53;;;;;;;1.02;0.10;;;10.90;99.90;;;;;;4988541;28;20385;-84
2023/11/02 08:01:19;;;;;;;0.63;0.10;;;11.00;99.90;;;;;;4984807;28;20038;-85
2023/11/02 08:03:45;;;;;;;0.75;0.10;;;11.00;99.90;;;;;;5015540;28;20065;-87
2023/11/02 08:06:11;;;;;;;0.25;0.00;;;11.10;99.90;;;;;;4998902;28;20034;-86
2023/11/02 08:08:37;;;;;;;0.47;0.10;;;11.20;99.90;;;;;;4998196;28;20030;-86
2023/11/02 08:11:03;;;;;;;0.55;0.10;;;11.20;99.90;;;;;;5000219;28;20492;-85
2023/11/02 08:13:30;;;;;;;0.88;0.10;;;11.30;99.90;;;;;;5016998;28;20046;-85
2023/11/02 08:15:57;;;;;;;2.85;0.10;;;11.50;99.90;;;;;;4985109;28;20032;-83
2023/11/02 08:18:23;;;;;;;2.00;0.03;;;11.70;99.90;;;;;;4997864;28;20482;-85
2023/11/02 08:20:49;;;;;;;0.30;0.00;;;11.70;99.90;;;;;;4983856;28;20041;-84
2023/11/02 08:23:15;;;;;;;0.82;0.00;;;11.80;99.90;;;;;;5000304;28;20034;-87
2023/11/02 08:25:41;;;;;;;0.50;0.00;;;11.80;99.90;;;;;;4981098;28;20064;-84
2023/11/02 08:28:07;;;;;;;1.13;0.00;;;11.90;99.90;;;;;;4995175;28;20034;-82
2023/11/02 08:30:32;;;;;;;2.40;0.20;;;11.90;99.90;;;;;;5000965;28;20179;-85
2023/11/02 08:32:58;;;;;;;0.40;0.10;;;12.00;99.90;;;;;;4985142;28;20041;-86
2023/11/02 08:35:24;;;;;;;0.40;0.03;;;12.10;99.90;;;;;;5003123;28;20082;-85
2023/11/02 08:37:51;;;;;;;1.00;0.10;;;12.10;99.90;;;;;;4989893;28;20032;-86
2023/11/02 08:40:18;;;;;;;1.00;0.10;;;12.10;99.90;;;;;;5005935;28;20040;-85
2023/11/02 08:42:44;;;;;;;2.10;0.10;;;12.10;99.90;;;;;;5017388;28;20025;-87
2023/11/02 08:45:13;;;;;;;0.73;0.03;;;12.30;99.90;;;;;;5002119;28;20046;-87
2023/11/02 08:47:39;;;;;;;1.00;0.10;;;12.40;99.90;;;;;;4997764;28;20041;-87
2023/11/02 08:50:06;;;;;;;0.50;0.10;;;12.50;99.90;;;;;;5003087;28;20022;-86
2023/11/02 08:52:32;;;;;;;1.65;0.10;;;12.60;99.90;;;;;;4985123;28;20054;-87
2023/11/02 08:54:59;;;;;;;0.88;0.10;;;12.70;99.90;;;;;;4990140;28;20084;-87
2023/11/02 08:57:25;;;;;;;0.88;0.10;;;12.70;99.90;;;;;;5000360;28;20589;-86
2023/11/02 08:59:51;;;;;;;1.15;0.10;;;12.70;99.90;;;;;;5017639;28;20033;-86
2023/11/02 09:02:17;;;;;;;0.60;0.08;;;12.80;99.90;;;;;;5006646;28;20034;-86
2023/11/02 09:04:42;;;;;;;0.75;0.10;;;12.90;99.90;;;;;;5002744;28;20413;-87
2023/11/02 09:07:08;;;;;;;0.45;0.03;;;12.90;99.90;;;;;;5003252;28;20113;-83
2023/11/02 09:09:34;;;;;;;0.47;0.00;;;12.80;99.90;;;;;;4999341;28;20034;-87
2023/11/02 09:12:00;;;;;;;1.05;0.10;;;12.80;99.90;;;;;;5005566;28;20056;-85
2023/11/02 09:14:26;;;;;;;2.50;0.03;;;12.70;99.90;;;;;;5000902;28;20052;-85
2023/11/02 09:16:51;;;;;;;2.05;0.20;;;12.70;99.90;;;;;;4981613;28;20026;-86
2023/11/02 09:19:17;;;;;;;0.85;0.00;;;12.60;99.90;;;;;;5003840;28;20049;-84
2023/11/02 09:21:43;;;;;;;1.45;0.10;;;12.60;99.90;;;;;;4995385;28;20049;-85
2023/11/02 09:24:09;;;;;;;0.68;0.00;;;12.60;99.90;;;;;;4980573;28;20478;-85
2023/11/02 09:26:35;;;;;;;1.63;0.10;;;12.60;99.90;;;;;;4981050;28;20036;-85
2023/11/02 09:29:01;;;;;;;0.93;0.05;;;12.60;99.90;;;;;;5015825;28;20054;-84
2023/11/02 09:31:29;;;;;;;0.88;0.10;;;12.70;99.90;;;;;;5014156;28;20040;-85
2023/11/02 09:34:01;;;;;;;0.43;0.10;;;12.70;99.90;;;;;;4997409;28;20042;-84
2023/11/02 09:36:27;;;;;;;0.52;0.10;;;12.70;99.90;;;;;;4998235;28;20357;-84
2023/11/02 09:38:53;;;;;;;1.38;0.10;;;12.70;99.90;;;;;;4980705;28;20031;-83
2023/11/02 09:41:19;;;;;;;0.80;0.10;;;12.80;99.90;;;;;;5013569;28;21987;-84
2023/11/02 09:43:45;;;;;;;0.38;0.10;;;12.90;99.90;;;;;;5013504;28;20050;-85
2023/11/02 09:46:12;;;;;;;1.48;0.10;;;12.90;99.90;;;;;;5012498;28;20038;-85
2023/11/02 09:48:38;;;;;;;1.55;0.10;;;12.90;99.90;;;;;;4998287;28;20033;-85
2023/11/02 09:51:05;;;;;;;1.27;0.10;;;13.00;99.90;;;;;;4998270;28;20036;-84
2023/11/02 09:53:31;;;;;;;0.22;0.03;;;13.10;99.90;;;;;;5003437;28;20140;-86
2023/11/02 09:55:57;;;;;;;0.63;0.10;;;13.10;99.90;;;;;;5015488;28;20434;-86
2023/11/02 09:58:24;;;;;;;0.43;0.10;;;13.10;99.90;;;;;;4995192;28;20425;-85
2023/11/02 10:00:50;;;;;;;1.35;0.00;;;13.20;99.90;;;;;;5012046;28;20052;-83
2023/11/02 10:03:16;;;;;;;0.40;0.10;;;13.20;99.90;;;;;;4998467;28;20061;-87
2023/11/02 10:05:44;;;;;;;1.25;0.10;;;13.20;99.90;;;;;;4984990;28;20030;-86
2023/11/02 10:08:10;;;;;;;0.77;0.10;;;13.30;99.90;;;;;;5016333;28;20113;-84
2023/11/02 10:10:36;;;;;;;1.65;0.00;;;13.50;99.90;;;;;;4983851;28;20470;-85
2023/11/02 10:13:02;;;;;;;0.70;0.10;;;13.60;99.90;;;;;;4998661;28;20129;-85
2023/11/02 10:15:29;;;;;;;0.88;0.10;;;13.60;99.90;;;;;;4994598;28;20039;-87
2023/11/02 10:17:55;;;;;;;0.50;0.10;;;13.60;99.90;;;;;;4997574;28;20034;-85
2023/11/02 10:20:21;;;;;;;0.70;0.10;;;13.60;99.90;;;;;;4996216;28;20096;-86
2023/11/02 10:23:03;;;;;;;2.90;0.20;;;13.70;99.90;;;;;;5002724;28;20038;-85
2023/11/02 10:25:29;;;;;;;2.00;0.10;;;13.80;99.90;;;;;;5014254;28;20037;-85
2023/11/02 10:27:56;;;;;;;2.92;0.10;;;13.80;99.90;;;;;;4994922;28;20026;-86
2023/11/02 10:30:23;;;;;;;1.92;0.10;;;14.00;99.90;;;;;;4987484;28;20065;-86
2023/11/02 10:32:49;;;;;;;2.33;0.10;;;14.00;99.90;;;;;;4983826;28;20483;-85
2023/11/02 10:35:15;;;;;;;1.80;0.20;;;14.10;99.90;;;;;;4995384;28;20095;-85
2023/11/02 10:37:41;;;;;;;1.95;0.13;;;14.20;99.90;;;;;;5004092;28;20025;-85
2023/11/02 10:40:08;;;;;;;1.42;0.20;;;14.30;99.90;;;;;;5009835;28;20479;-85
2023/11/02 10:42:35;;;;;;;1.23;0.10;;;14.30;99.90;;;;;;4996046;28;20030;-86
2023/11/02 10:45:05;;;;;;;2.25;0.10;;;14.30;99.90;;;;;;5012713;28;20049;-85
2023/11/02 10:47:34;;;;;;;2.25;0.20;;;14.20;99.90;;;;;;4982882;28;20510;-84
2023/11/02 10:50:02;;;;;;;4.03;0.20;;;14.30;98.60;;;;;;5002576;28;20034;-90
2023/11/02 10:52:45;;;;;;;2.72;0.20;;;14.40;99.10;;;;;;5013647;28;20021;-87
2023/11/02 10:55:31;;;;;;;1.92;0.17;;;14.30;97.80;;;;;;4992803;28;20088;-88
2023/11/02 10:58:01;;;;;;;1.35;0.20;;;14.20;98.60;;;;;;4997359;28;20022;-89
2023/11/02 11:00:27;;;;;;;2.72;0.20;;;14.20;97.50;;;;;;4999215;28;20121;-86
2023/11/02 11:02:53;;;;;;;1.73;0.20;;;14.10;97.40;;;;;;4995632;28;20026;-87
2023/11/02 11:05:20;;;;;;;1.85;0.10;;;14.20;96.10;;;;;;4986558;28;20060;-86
2023/11/02 11:07:51;;;;;;;2.53;0.32;;;14.30;96.30;;;;;;4996387;28;20117;-86
2023/11/02 11:10:19;;;;;;;3.40;0.20;;;14.40;95.50;;;;;;4987531;28;20033;-86
2023/11/02 11:12:46;;;;;;;1.63;0.20;;;14.50;95.20;;;;;;5002963;28;20471;-86
2023/11/02 11:15:12;;;;;;;1.23;0.20;;;14.60;94.70;;;;;;5004097;28;20037;-87
2023/11/02 11:17:44;;;;;;;3.10;0.30;;;14.60;94.90;;;;;;4999205;28;20026;-85
2023/11/02 11:20:12;;;;;;;1.38;0.10;;;14.60;94.60;;;;;;4994147;28;20042;-87
2023/11/02 11:22:40;;;;;;;4.30;0.20;;;14.60;94.10;;;;;;4979076;28;20485;-85
2023/11/02 11:25:06;;;;;;;2.97;0.30;;;14.50;93.10;;;;;;4998101;28;20029;-86
2023/11/02 11:27:37;;;;;;;3.30;0.32;;;14.50;92.90;;;;;;4996531;28;20026;-87
2023/11/02 11:30:04;;;;;;;4.72;0.50;;;14.50;92.60;;;;;;5012914;28;20494;-87
2023/11/02 11:32:37;;;;;;;11.23;0.93;;;14.50;92.60;;;;;;4980969;28;20091;-88
2023/11/02 11:35:09;;;;;;;2.88;0.20;;;14.50;91.80;;;;;;5016131;28;20091;-88
2023/11/02 11:40:20;;;;;;;2.42;0.30;;;14.50;92.00;;;;;;4997310;28;20036;-86
2023/11/02 11:42:52;;;;;;;1.58;0.22;;;14.60;90.10;;;;;;4994403;28;20405;-86
2023/11/02 11:45:24;;;;;;;3.40;0.20;;;14.70;90.60;;;;;;4987754;28;20115;-88
2023/11/02 11:47:50;;;;;;;1.77;0.10;;;14.90;90.10;;;;;;4996201;28;20078;-86
2023/11/02 11:50:39;;;;;;;3.13;0.20;;;15.10;87.50;;;;;;4998433;28;20112;-88
2023/11/02 11:53:14;;;;;;;2.00;0.20;;;15.10;88.50;;;;;;4996530;28;20030;-87
2023/11/02 11:55:40;;;;;;;3.17;0.63;;;14.80;89.20;;;;;;4997979;28;20159;-88
2023/11/02 11:58:08;;;;;;;4.03;0.20;;;14.80;88.50;;;;;;4995548;28;20069;-86
2023/11/02 12:00:35;;;;;;;1.92;0.17;;;14.90;85.30;;;;;;4980274;28;20118;-88
2023/11/02 12:03:05;;;;;;;3.25;0.20;;;14.70;85.90;;;;;;4979522;28;20033;-89
2023/11/02 12:05:42;;;;;;;3.05;0.20;;;14.90;85.80;;;;;;5010151;28;20066;-87
2023/11/02 12:08:12;;;;;;;4.10;0.28;;;14.90;86.40;;;;;;4978579;28;20106;-88
2023/11/02 12:10:49;;;;;;;2.60;0.10;;;14.80;86.50;;;;;;4982462;28;20083;-87
2023/11/02 12:13:15;;;;;;;5.15;0.40;;;14.80;86.20;;;;;;4998707;28;20035;-87
2023/11/02 12:16:01;;;;;;;3.28;0.20;;;14.70;84.90;;;;;;4986499;28;20049;-85
2023/11/02 12:18:31;;;;;;;1.35;0.30;;;14.50;87.40;;;;;;4997843;28;20389;-85
2023/11/02 12:21:04;;;;;;;6.45;0.30;;;14.30;89.40;;;;;;4994707;28;20081;-82
2023/11/02 12:23:38;;;;;;;3.50;0.20;;;14.10;89.30;;;;;;4977871;28;20707;-88
2023/11/02 12:26:05;;;;;;;2.92;0.30;;;14.10;89.20;;;;;;5002205;28;20033;-86
2023/11/02 12:28:44;;;;;;;3.47;0.43;;;13.90;90.90;;;;;;4984442;28;20065;-86
2023/11/02 12:31:11;;;;;;;6.60;0.20;;;13.90;91.60;;;;;;5000792;28;20413;-86
2023/11/02 12:33:37;;;;;;;3.30;0.20;;;14.10;91.80;;;;;;5000728;28;20049;-87
2023/11/02 12:36:03;;;;;;;5.40;0.20;;;14.20;91.50;;;;;;4981063;28;20088;-85
2023/11/02 12:38:49;;;;;;;3.13;0.20;;;14.30;89.20;;;;;;4998904;28;20025;-87
2023/11/02 12:41:25;;;;;;;4.80;0.20;;;14.40;87.70;;;;;;5001305;28;20125;-88
2023/11/02 12:44:04;;;;;;;3.95;0.30;;;14.50;86.00;;;;;;4983330;28;20068;-86
2023/11/02 12:47:03;;;;;;;2.07;0.10;;;14.60;86.00;;;;;;4982337;28;20084;-87
2023/11/02 12:49:28;;;;;;;3.30;0.20;;;14.80;85.50;;;;;;5019014;28;20025;-88
2023/11/02 12:51:57;;;;;;;2.60;0.20;;;14.90;81.90;;;;;;5018659;28;20033;-88
2023/11/02 12:54:26;;;;;;;4.05;0.20;;;14.70;83.00;;;;;;4983463;28;20121;-86
2023/11/02 12:56:54;;;;;;;3.00;0.20;;;14.80;81.60;;;;;;5019138;28;20030;-87
2023/11/02 12:59:23;;;;;;;7.07;0.28;;;14.70;83.10;;;;;;4998098;28;20475;-85
2023/11/02 13:01:54;;;;;;;5.25;0.20;;;14.80;78.60;;;;;;4985736;28;20030;-86
2023/11/02 13:04:23;;;;;;;3.58;0.20;;;14.70;81.40;;;;;;5001836;28;20034;-85
2023/11/02 13:06:50;;;;;;;3.83;0.30;;;14.70;82.50;;;;;;5017362;28;20085;-85